sensor_id;sensor_type;location;lat;lon;timestamp;pressure;altitude;pressure_sealevel;temperature;humidity
72066;BME280;59939;52.516;13.420;2022-09-09T16:03:08;100074.97;;;25.49;38.04
72066;BME280;59939;52.516;13.420;2022-09-09T16:06:28;100084.38;;;23.95;40.73
72066;BME280;59939;52.516;13.420;2022-09-09T16:09:35;100086.34;;;24.77;39.20
72066;BME280;59939;52.516;13.420;2022-09-09T16:12:41;100089.50;;;24.49;39.27
72066;BME280;59939;52.516;13.420;2022-09-09T16:15:44;100095.06;;;22.86;42.83
72066;BME280;59939;52.516;13.420;2022-09-09T16:18:52;100110.41;;;23.96;41.59
72066;BME280;59939;52.516;13.420;2022-09-09T16:21:57;100119.50;;;22.57;44.52
72066;BME280;59939;52.516;13.420;2022-09-09T16:25:08;100114.69;;;22.61;44.54
72066;BME280;59939;52.516;13.420;2022-09-09T16:28:15;100123.09;;;22.61;44.98
72066;BME280;59939;52.516;13.420;2022-09-09T16:31:21;100123.53;;;22.31;45.21
72066;BME280;59939;52.516;13.420;2022-09-09T16:34:26;100131.13;;;22.24;46.22
72066;BME280;59939;52.516;13.420;2022-09-09T16:37:30;100125.50;;;22.49;45.84
72066;BME280;59939;52.516;13.420;2022-09-09T16:40:36;100133.53;;;22.29;46.33
72066;BME280;59939;52.516;13.420;2022-09-09T16:43:41;100119.56;;;22.25;47.04
72066;BME280;59939;52.516;13.420;2022-09-09T16:46:46;100122.53;;;23.13;44.52
72066;BME280;59939;52.516;13.420;2022-09-09T16:49:52;100120.91;;;23.15;45.20
72066;BME280;59939;52.516;13.420;2022-09-09T16:52:56;100119.97;;;22.17;47.55
72066;BME280;59939;52.516;13.420;2022-09-09T16:56:14;100121.13;;;22.37;47.53
72066;BME280;59939;52.516;13.420;2022-09-09T16:59:21;100123.47;;;22.67;46.95
72066;BME280;59939;52.516;13.420;2022-09-09T17:02:26;100119.50;;;23.55;45.05
72066;BME280;59939;52.516;13.420;2022-09-09T17:05:31;100117.13;;;22.45;49.16
72066;BME280;59939;52.516;13.420;2022-09-09T17:08:39;100115.97;;;22.00;52.53
72066;BME280;59939;52.516;13.420;2022-09-09T17:11:46;100110.38;;;21.89;53.39
72066;BME280;59939;52.516;13.420;2022-09-09T17:14:51;100111.53;;;21.42;55.30
72066;BME280;59939;52.516;13.420;2022-09-09T17:17:54;100120.53;;;21.03;57.05
72066;BME280;59939;52.516;13.420;2022-09-09T17:21:07;100124.66;;;21.38;56.99
72066;BME280;59939;52.516;13.420;2022-09-09T17:24:11;100117.78;;;21.14;58.78
72066;BME280;59939;52.516;13.420;2022-09-09T17:27:15;100113.81;;;21.15;58.98
72066;BME280;59939;52.516;13.420;2022-09-09T17:30:18;100121.50;;;21.43;58.25
72066;BME280;59939;52.516;13.420;2022-09-09T17:33:23;100105.97;;;21.63;57.57
72066;BME280;59939;52.516;13.420;2022-09-09T17:36:33;100102.31;;;21.24;58.89
72066;BME280;59939;52.516;13.420;2022-09-09T17:40:05;100098.00;;;21.55;57.08
72066;BME280;59939;52.516;13.420;2022-09-09T17:43:09;100097.13;;;21.22;55.01
72066;BME280;59939;52.516;13.420;2022-09-09T17:46:20;100107.38;;;21.04;55.21
72066;BME280;59939;52.516;13.420;2022-09-09T17:49:25;100115.16;;;20.56;56.15
72066;BME280;59939;52.516;13.420;2022-09-09T17:52:37;100116.50;;;20.94;55.08
72066;BME280;59939;52.516;13.420;2022-09-09T17:55:41;100113.50;;;20.47;55.75
72066;BME280;59939;52.516;13.420;2022-09-09T17:58:54;100114.03;;;20.12;55.67
72066;BME280;59939;52.516;13.420;2022-09-09T18:01:59;100116.50;;;20.25;54.51
72066;BME280;59939;52.516;13.420;2022-09-09T18:05:08;100111.75;;;20.25;53.48
72066;BME280;59939;52.516;13.420;2022-09-09T18:08:15;100114.13;;;20.27;52.99
72066;BME280;59939;52.516;13.420;2022-09-09T18:11:21;100125.34;;;19.86;54.58
72066;BME280;59939;52.516;13.420;2022-09-09T18:14:28;100120.44;;;20.16;54.25
72066;BME280;59939;52.516;13.420;2022-09-09T18:17:33;100134.06;;;20.29;54.06
72066;BME280;59939;52.516;13.420;2022-09-09T18:20:37;100147.31;;;19.20;57.63
72066;BME280;59939;52.516;13.420;2022-09-09T18:23:41;100151.91;;;19.06;58.26
72066;BME280;59939;52.516;13.420;2022-09-09T18:26:59;100146.34;;;19.39;57.93
72066;BME280;59939;52.516;13.420;2022-09-09T18:30:04;100153.59;;;19.88;56.60
72066;BME280;59939;52.516;13.420;2022-09-09T18:33:09;100161.38;;;19.31;59.29
72066;BME280;59939;52.516;13.420;2022-09-09T18:36:16;100173.53;;;18.89;61.20
72066;BME280;59939;52.516;13.420;2022-09-09T18:39:22;100198.03;;;18.31;63.67
72066;BME280;59939;52.516;13.420;2022-09-09T18:42:28;100182.41;;;18.19;65.36
72066;BME280;59939;52.516;13.420;2022-09-09T18:45:46;100193.88;;;18.44;64.80
72066;BME280;59939;52.516;13.420;2022-09-09T18:48:50;100197.63;;;18.29;65.96
72066;BME280;59939;52.516;13.420;2022-09-09T18:51:55;100192.03;;;18.52;65.33
72066;BME280;59939;52.516;13.420;2022-09-09T18:54:59;100198.09;;;18.35;66.75
72066;BME280;59939;52.516;13.420;2022-09-09T18:58:05;100195.63;;;18.30;66.86
72066;BME280;59939;52.516;13.420;2022-09-09T19:01:11;100204.09;;;18.37;67.07
72066;BME280;59939;52.516;13.420;2022-09-09T19:04:16;100210.72;;;18.55;65.75
72066;BME280;59939;52.516;13.420;2022-09-09T19:07:21;100217.50;;;17.85;67.78
72066;BME280;59939;52.516;13.420;2022-09-09T19:10:35;100215.06;;;18.03;66.76
72066;BME280;59939;52.516;13.420;2022-09-09T19:13:51;100216.84;;;17.92;67.06
72066;BME280;59939;52.516;13.420;2022-09-09T19:17:21;100203.16;;;18.03;66.56
72066;BME280;59939;52.516;13.420;2022-09-09T19:20:25;100196.47;;;18.56;64.40
72066;BME280;59939;52.516;13.420;2022-09-09T19:23:30;100207.56;;;18.56;63.94
72066;BME280;59939;52.516;13.420;2022-09-09T19:26:39;100211.78;;;18.70;63.51
72066;BME280;59939;52.516;13.420;2022-09-09T19:29:43;100209.97;;;18.58;62.27
72066;BME280;59939;52.516;13.420;2022-09-09T19:32:48;100218.75;;;18.11;64.58
72066;BME280;59939;52.516;13.420;2022-09-09T19:35:57;100216.13;;;18.21;64.06
72066;BME280;59939;52.516;13.420;2022-09-09T19:39:02;100218.97;;;18.25;63.17
72066;BME280;59939;52.516;13.420;2022-09-09T19:42:13;100211.53;;;18.06;64.58
72066;BME280;59939;52.516;13.420;2022-09-09T19:45:17;100216.59;;;18.01;64.17
72066;BME280;59939;52.516;13.420;2022-09-09T19:48:37;100218.91;;;17.76;65.21
72066;BME280;59939;52.516;13.420;2022-09-09T19:51:43;100232.78;;;17.56;66.24
72066;BME280;59939;52.516;13.420;2022-09-09T19:54:49;100218.53;;;17.58;66.11
72066;BME280;59939;52.516;13.420;2022-09-09T19:57:55;100227.22;;;17.37;66.38
72066;BME280;59939;52.516;13.420;2022-09-09T20:01:20;100228.47;;;17.40;66.47
72066;BME280;59939;52.516;13.420;2022-09-09T20:04:32;100226.84;;;17.58;66.00
72066;BME280;59939;52.516;13.420;2022-09-09T20:07:37;100223.53;;;17.68;66.13
72066;BME280;59939;52.516;13.420;2022-09-09T20:10:50;100225.19;;;17.34;67.98
72066;BME280;59939;52.516;13.420;2022-09-09T20:13:57;100223.50;;;17.29;68.35
72066;BME280;59939;52.516;13.420;2022-09-09T20:17:01;100223.66;;;17.37;68.07
72066;BME280;59939;52.516;13.420;2022-09-09T20:20:06;100230.66;;;17.50;66.40
72066;BME280;59939;52.516;13.420;2022-09-09T20:23:12;100231.41;;;18.08;64.89
72066;BME280;59939;52.516;13.420;2022-09-09T20:26:19;100232.78;;;17.56;66.30
72066;BME280;59939;52.516;13.420;2022-09-09T20:29:44;100240.06;;;17.45;66.26
72066;BME280;59939;52.516;13.420;2022-09-09T20:32:52;100228.25;;;17.29;67.16
72066;BME280;59939;52.516;13.420;2022-09-09T20:35:55;100231.47;;;17.50;65.88
72066;BME280;59939;52.516;13.420;2022-09-09T20:39:05;100217.81;;;17.42;66.11
72066;BME280;59939;52.516;13.420;2022-09-09T20:42:35;100225.75;;;17.24;67.36
72066;BME280;59939;52.516;13.420;2022-09-09T20:45:47;100215.84;;;17.42;67.02
72066;BME280;59939;52.516;13.420;2022-09-09T20:48:53;100202.56;;;17.51;66.67
72066;BME280;59939;52.516;13.420;2022-09-09T20:52:03;100198.91;;;17.28;67.69
72066;BME280;59939;52.516;13.420;2022-09-09T20:55:08;100195.84;;;17.14;68.35
72066;BME280;59939;52.516;13.420;2022-09-09T20:58:12;100196.34;;;16.81;69.55
72066;BME280;59939;52.516;13.420;2022-09-09T21:01:17;100182.28;;;17.09;68.51
72066;BME280;59939;52.516;13.420;2022-09-09T21:04:21;100181.16;;;16.94;68.98
72066;BME280;59939;52.516;13.420;2022-09-09T21:07:25;100186.94;;;16.85;69.57
72066;BME280;59939;52.516;13.420;2022-09-09T21:10:29;100189.03;;;16.73;69.72
72066;BME280;59939;52.516;13.420;2022-09-09T21:13:36;100189.84;;;16.73;69.70
72066;BME280;59939;52.516;13.420;2022-09-09T21:16:40;100181.25;;;16.78;69.25
72066;BME280;59939;52.516;13.420;2022-09-09T21:19:44;100181.41;;;16.85;69.01
72066;BME280;59939;52.516;13.420;2022-09-09T21:22:48;100192.63;;;16.73;69.57
72066;BME280;59939;52.516;13.420;2022-09-09T21:25:53;100190.22;;;16.56;70.90
72066;BME280;59939;52.516;13.420;2022-09-09T21:28:58;100178.84;;;16.61;70.75
72066;BME280;59939;52.516;13.420;2022-09-09T21:32:01;100187.91;;;16.42;71.75
72066;BME280;59939;52.516;13.420;2022-09-09T21:35:06;100182.34;;;16.58;71.31
72066;BME280;59939;52.516;13.420;2022-09-09T21:38:18;100191.75;;;16.38;71.10
72066;BME280;59939;52.516;13.420;2022-09-09T21:41:22;100202.97;;;16.60;70.75
72066;BME280;59939;52.516;13.420;2022-09-09T21:44:26;100198.16;;;16.73;70.23
72066;BME280;59939;52.516;13.420;2022-09-09T21:47:30;100196.03;;;16.51;71.20
72066;BME280;59939;52.516;13.420;2022-09-09T21:50:38;100210.69;;;16.36;71.67
72066;BME280;59939;52.516;13.420;2022-09-09T21:53:43;100201.66;;;16.70;70.69
72066;BME280;59939;52.516;13.420;2022-09-09T21:56:48;100209.69;;;16.44;72.07
72066;BME280;59939;52.516;13.420;2022-09-09T21:59:54;100207.03;;;16.31;72.29
72066;BME280;59939;52.516;13.420;2022-09-09T22:02:58;100220.59;;;16.37;72.24
72066;BME280;59939;52.516;13.420;2022-09-09T22:06:04;100210.25;;;16.18;73.43
72066;BME280;59939;52.516;13.420;2022-09-09T22:09:08;100214.34;;;16.24;73.30
72066;BME280;59939;52.516;13.420;2022-09-09T22:12:12;100215.34;;;16.31;72.81
72066;BME280;59939;52.516;13.420;2022-09-09T22:15:16;100213.28;;;16.44;72.60
72066;BME280;59939;52.516;13.420;2022-09-09T22:18:21;100218.19;;;16.19;73.72
72066;BME280;59939;52.516;13.420;2022-09-09T22:21:26;100214.41;;;16.59;72.08
72066;BME280;59939;52.516;13.420;2022-09-09T22:24:30;100205.69;;;16.41;73.26
72066;BME280;59939;52.516;13.420;2022-09-09T22:27:34;100210.47;;;16.76;71.88
72066;BME280;59939;52.516;13.420;2022-09-09T22:30:38;100212.47;;;16.28;73.89
72066;BME280;59939;52.516;13.420;2022-09-09T22:33:42;100203.91;;;16.33;73.90
72066;BME280;59939;52.516;13.420;2022-09-09T22:36:47;100216.22;;;16.20;74.28
72066;BME280;59939;52.516;13.420;2022-09-09T22:39:53;100206.81;;;16.72;72.50
72066;BME280;59939;52.516;13.420;2022-09-09T22:42:57;100204.81;;;16.88;71.51
72066;BME280;59939;52.516;13.420;2022-09-09T22:46:02;100208.06;;;16.58;72.50
72066;BME280;59939;52.516;13.420;2022-09-09T22:49:06;100204.50;;;16.93;70.79
72066;BME280;59939;52.516;13.420;2022-09-09T22:52:09;100201.72;;;16.74;71.73
72066;BME280;59939;52.516;13.420;2022-09-09T22:55:13;100192.19;;;17.10;70.51
72066;BME280;59939;52.516;13.420;2022-09-09T22:58:18;100203.84;;;17.00;70.68
72066;BME280;59939;52.516;13.420;2022-09-09T23:01:23;100195.81;;;16.94;71.39
72066;BME280;59939;52.516;13.420;2022-09-09T23:04:27;100201.13;;;16.49;73.75
72066;BME280;59939;52.516;13.420;2022-09-09T23:07:31;100215.50;;;16.23;75.05
72066;BME280;59939;52.516;13.420;2022-09-09T23:10:39;100213.28;;;16.13;75.89
72066;BME280;59939;52.516;13.420;2022-09-09T23:13:51;100212.38;;;16.09;76.13
72066;BME280;59939;52.516;13.420;2022-09-09T23:16:56;100205.16;;;16.20;75.73
72066;BME280;59939;52.516;13.420;2022-09-09T23:20:00;100207.53;;;16.53;74.32
72066;BME280;59939;52.516;13.420;2022-09-09T23:23:05;100192.97;;;16.72;73.51
72066;BME280;59939;52.516;13.420;2022-09-09T23:26:12;100194.03;;;16.83;72.73
72066;BME280;59939;52.516;13.420;2022-09-09T23:29:16;100203.78;;;16.61;73.72
72066;BME280;59939;52.516;13.420;2022-09-09T23:32:22;100193.63;;;16.65;73.78
72066;BME280;59939;52.516;13.420;2022-09-09T23:35:27;100190.75;;;16.46;74.64
72066;BME280;59939;52.516;13.420;2022-09-09T23:38:30;100189.97;;;16.45;74.51
72066;BME280;59939;52.516;13.420;2022-09-09T23:41:35;100189.44;;;16.24;75.38
72066;BME280;59939;52.516;13.420;2022-09-09T23:44:39;100186.56;;;16.36;75.28
72066;BME280;59939;52.516;13.420;2022-09-09T23:47:43;100191.13;;;16.28;75.35
72066;BME280;59939;52.516;13.420;2022-09-09T23:50:48;100191.50;;;16.11;76.50
72066;BME280;59939;52.516;13.420;2022-09-09T23:53:54;100179.53;;;15.91;76.79
72066;BME280;59939;52.516;13.420;2022-09-09T23:57:01;100177.75;;;15.83;77.81
